Time;durP1;ratioP1;P1;durP2;ratioP2;P2;SDS_P1;SDS_P2;PMS_P1;PMS_P2;Temp;Humidity;BMP_temperature;BMP_pressure;BME280_temperature;BME280_humidity;BME280_pressure;Samples;Min_cycle;Max_cycle;Signal;HPM_P1;HPM_P2
2023/05/17 00:00:19;;;;;;;15.35;12.57;;;;;;;16.68;100.00;99509.66;5107344;28;20024;-64
2023/05/17 00:02:44;;;;;;;18.48;13.18;;;;;;;16.66;100.00;99509.00;5110076;28;20058;-64
2023/05/17 00:05:13;;;;;;;15.85;12.50;;;;;;;16.64;100.00;99520.03;5109545;28;20058;-65
2023/05/17 00:07:38;;;;;;;14.60;11.52;;;;;;;16.57;100.00;99502.88;5109952;28;20410;-65
2023/05/17 00:10:04;;;;;;;15.93;12.05;;;;;;;16.49;100.00;99497.59;5109950;28;20035;-64
2023/05/17 00:12:30;;;;;;;17.42;12.98;;;;;;;16.58;100.00;99509.13;5109659;28;20035;-64
2023/05/17 00:14:55;;;;;;;19.25;13.15;;;;;;;16.50;100.00;99501.13;5099984;28;20467;-64
2023/05/17 00:17:21;;;;;;;17.10;12.23;;;;;;;16.42;100.00;99490.41;5109238;28;20455;-64
2023/05/17 00:19:46;;;;;;;14.82;11.65;;;;;;;16.44;100.00;99491.09;5109331;28;21056;-65
2023/05/17 00:22:12;;;;;;;17.95;12.68;;;;;;;16.51;100.00;99506.34;5102038;28;20042;-64
2023/05/17 00:24:37;;;;;;;20.92;12.35;;;;;;;16.26;100.00;99461.72;5097475;28;20033;-64
2023/05/17 00:27:03;;;;;;;14.40;12.77;;;;;;;16.40;100.00;99493.28;5108795;28;20058;-64
2023/05/17 00:29:28;;;;;;;19.35;13.35;;;;;;;16.40;100.00;99503.28;5104472;28;20032;-63
2023/05/17 00:31:54;;;;;;;18.52;13.20;;;;;;;16.26;100.00;99482.50;5109269;28;20024;-64
2023/05/17 00:34:19;;;;;;;13.90;11.85;;;;;;;16.26;100.00;99496.03;5109682;28;20081;-64
2023/05/17 00:36:45;;;;;;;24.23;14.02;;;;;;;16.40;100.00;99524.91;5109349;28;20088;-64
2023/05/17 00:39:10;;;;;;;15.25;12.52;;;;;;;16.40;100.00;99539.31;5108287;28;20027;-64
2023/05/17 00:41:35;;;;;;;18.05;13.00;;;;;;;16.36;100.00;99526.34;5108540;28;20039;-64
2023/05/17 00:44:01;;;;;;;16.73;12.48;;;;;;;16.24;100.00;99517.03;5109389;28;20050;-64
2023/05/17 00:46:26;;;;;;;16.80;13.02;;;;;;;16.33;100.00;99542.97;5106750;28;20039;-64
2023/05/17 00:48:52;;;;;;;15.70;12.38;;;;;;;16.29;100.00;99534.41;5109646;28;20019;-64
2023/05/17 00:51:18;;;;;;;16.92;12.98;;;;;;;16.27;100.00;99538.31;5108993;28;20032;-64
2023/05/17 00:53:44;;;;;;;18.60;13.45;;;;;;;16.27;100.00;99541.84;5109430;28;20054;-64
2023/05/17 00:56:10;;;;;;;16.70;13.18;;;;;;;16.24;100.00;99535.97;5108095;28;20114;-65
2023/05/17 00:58:36;;;;;;;15.40;12.82;;;;;;;16.21;100.00;99530.94;5109034;28;20161;-64
2023/05/17 01:01:02;;;;;;;22.00;12.80;;;;;;;16.11;100.00;99523.13;5109188;28;20077;-64
2023/05/17 01:03:27;;;;;;;14.90;12.68;;;;;;;16.08;100.00;99519.94;5109001;28;20042;-65
2023/05/17 01:05:54;;;;;;;18.65;12.68;;;;;;;16.11;100.00;99527.69;5109206;28;20135;-65
2023/05/17 01:08:19;;;;;;;17.75;12.63;;;;;;;15.99;100.00;99508.41;5109039;28;20437;-65
2023/05/17 01:11:18;;;;;;;17.95;13.27;;;;;;;16.06;100.00;99528.28;5109113;28;20043;-64
2023/05/17 01:13:55;;;;;;;18.15;12.75;;;;;;;16.03;100.00;99531.38;5090301;28;20040;-64
2023/05/17 01:16:38;;;;;;;16.83;13.00;;;;;;;15.99;100.00;99523.81;5103109;28;20043;-64
2023/05/17 01:19:18;;;;;;;18.55;13.07;;;;;;;15.93;100.00;99520.81;5104159;28;20031;-64
2023/05/17 01:22:14;;;;;;;17.25;12.27;;;;;;;15.88;100.00;99520.56;5110750;28;20076;-64
2023/05/17 01:25:00;;;;;;;18.75;13.15;;;;;;;15.84;100.00;99516.53;5101372;28;20035;-64
2023/05/17 01:27:28;;;;;;;14.32;12.82;;;;;;;15.84;100.00;99523.81;5112562;28;20036;-64
2023/05/17 01:29:55;;;;;;;15.30;12.25;;;;;;;15.66;100.00;99490.91;5110254;28;20802;-64
2023/05/17 01:32:21;;;;;;;19.30;12.60;;;;;;;15.77;100.00;99515.59;5112598;28;20038;-69
2023/05/17 01:34:46;;;;;;;15.73;11.80;;;;;;;15.72;100.00;99499.13;5113300;28;20114;-70
2023/05/17 01:37:12;;;;;;;21.67;13.25;;;;;;;15.73;100.00;99503.50;5113344;28;20027;-69
2023/05/17 01:39:37;;;;;;;16.45;12.10;;;;;;;15.70;100.00;99500.31;5113443;28;20027;-70
2023/05/17 01:42:21;;;;;;;18.60;13.75;;;;;;;15.57;100.00;99487.47;5113359;28;20019;-70
2023/05/17 01:45:02;;;;;;;17.83;12.25;;;;;;;15.50;100.00;99491.94;5110859;28;20516;-64
2023/05/17 01:48:05;;;;;;;16.63;12.55;;;;;;;15.54;100.00;99516.72;5111966;28;20019;-69
2023/05/17 01:50:32;;;;;;;14.73;11.73;;;;;;;15.50;100.00;99505.47;5112570;28;20041;-69
2023/05/17 01:53:16;;;;;;;17.30;12.23;;;;;;;15.46;100.00;99514.13;5112196;28;20071;-69
2023/05/17 01:55:50;;;;;;;14.88;11.52;;;;;;;15.38;100.00;99504.22;5111109;28;20859;-69
2023/05/17 01:58:20;;;;;;;14.98;12.63;;;;;;;15.37;100.00;99517.91;5101114;28;20043;-69
2023/05/17 02:00:47;;;;;;;16.80;12.38;;;;;;;15.30;100.00;99514.25;5113276;28;20023;-69
2023/05/17 02:03:17;;;;;;;15.70;13.20;;;;;;;15.27;100.00;99520.03;5112994;27;20042;-70
2023/05/17 02:05:42;;;;;;;15.88;11.93;;;;;;;15.25;100.00;99525.59;5110438;28;20047;-70
2023/05/17 02:08:08;;;;;;;14.55;11.27;;;;;;;15.18;100.00;99521.13;5112582;28;20121;-70
2023/05/17 02:10:33;;;;;;;20.08;12.70;;;;;;;15.12;100.00;99525.41;5107459;28;20044;-69
2023/05/17 02:12:59;;;;;;;16.55;12.95;;;;;;;15.08;100.00;99523.25;5112942;28;20039;-69
2023/05/17 02:15:24;;;;;;;13.75;12.35;;;;;;;14.90;100.00;99493.84;5112630;28;20031;-69
2023/05/17 02:17:50;;;;;;;16.05;12.82;;;;;;;15.08;100.00;99536.75;5113079;28;20031;-70
2023/05/17 02:20:16;;;;;;;14.27;12.75;;;;;;;15.03;100.00;99536.47;5112712;28;20055;-70
2023/05/17 02:22:41;;;;;;;17.17;12.02;;;;;;;15.05;100.00;99540.66;5109303;28;20028;-69
2023/05/17 02:25:07;;;;;;;19.25;13.00;;;;;;;15.02;100.00;99535.63;5114354;27;20042;-69
2023/05/17 02:27:32;;;;;;;19.42;13.68;;;;;;;14.98;100.00;99525.34;5111992;27;20043;-70
2023/05/17 02:29:58;;;;;;;18.20;14.52;;;;;;;14.97;100.00;99537.19;5113417;27;20066;-70
2023/05/17 02:32:23;;;;;;;15.73;13.10;;;;;;;14.96;100.00;99535.50;5112181;28;20110;-69
2023/05/17 02:34:49;;;;;;;14.68;12.98;;;;;;;14.83;100.00;99513.69;5112835;28;20020;-69
2023/05/17 02:37:14;;;;;;;16.55;12.60;;;;;;;14.92;100.00;99524.22;5112586;28;20020;-70
2023/05/17 02:39:40;;;;;;;16.83;13.63;;;;;;;14.85;100.00;99509.78;5112004;27;20038;-70
2023/05/17 02:42:05;;;;;;;16.25;13.15;;;;;;;14.84;100.00;99510.81;5112531;28;20066;-70
2023/05/17 02:44:31;;;;;;;18.13;14.10;;;;;;;14.93;100.00;99531.28;5112439;28;20032;-69
2023/05/17 02:46:56;;;;;;;19.67;13.63;;;;;;;14.93;100.00;99523.19;5112310;27;20022;-69
2023/05/17 02:49:21;;;;;;;18.95;13.82;;;;;;;14.93;100.00;99517.78;5111795;28;20036;-64
2023/05/17 02:51:47;;;;;;;15.13;12.68;;;;;;;14.75;100.00;99489.44;5111566;28;20043;-64
2023/05/17 02:54:12;;;;;;;16.67;12.98;;;;;;;14.91;100.00;99525.25;5111672;28;20046;-64
2023/05/17 02:56:38;;;;;;;19.63;13.27;;;;;;;14.87;100.00;99515.81;5111073;28;20468;-64
2023/05/17 02:59:04;;;;;;;18.60;13.75;;;;;;;14.86;100.00;99521.41;5111365;28;20028;-64
2023/05/17 03:01:29;;;;;;;18.20;15.05;;;;;;;14.84;100.00;99516.22;5110940;27;20592;-65
2023/05/17 03:03:55;;;;;;;20.35;15.93;;;;;;;14.84;100.00;99516.22;5111117;28;20031;-64
2023/05/17 03:06:20;;;;;;;23.25;14.93;;;;;;;14.84;100.00;99532.41;5110702;28;20027;-64
2023/05/17 03:08:46;;;;;;;20.17;15.05;;;;;;;14.80;100.00;99536.47;5111518;28;20076;-63
2023/05/17 03:11:11;;;;;;;16.85;15.02;;;;;;;14.87;100.00;99552.78;5111022;28;20868;-64
2023/05/17 03:13:37;;;;;;;20.52;15.40;;;;;;;14.86;100.00;99551.94;5109816;28;20048;-64
2023/05/17 03:16:02;;;;;;;23.60;15.95;;;;;;;14.88;100.00;99559.88;5110916;28;20073;-64
2023/05/17 03:18:28;;;;;;;22.67;16.33;;;;;;;14.73;100.00;99538.22;5099713;28;20051;-64
2023/05/17 03:20:53;;;;;;;17.52;15.52;;;;;;;14.91;100.00;99571.16;5109712;28;20019;-65
2023/05/17 03:23:18;;;;;;;25.25;16.83;;;;;;;14.92;100.00;99572.81;5111163;28;20027;-64
2023/05/17 03:25:44;;;;;;;21.35;15.52;;;;;;;14.88;100.00;99571.50;5110788;28;20038;-65
2023/05/17 03:28:09;;;;;;;22.60;15.68;;;;;;;14.79;100.00;99569.03;5110700;28;20126;-65
2023/05/17 03:30:35;;;;;;;21.40;16.65;;;;;;;14.72;100.00;99554.59;5110505;28;20040;-64
2023/05/17 03:33:00;;;;;;;25.70;16.65;;;;;;;14.84;100.00;99589.09;5110915;28;20044;-64
2023/05/17 03:35:26;;;;;;;22.00;16.85;;;;;;;15.01;100.00;99608.72;5110519;28;20055;-64
2023/05/17 03:37:51;;;;;;;23.30;17.40;;;;;;;15.03;100.00;99623.69;5110873;28;20080;-64
2023/05/17 03:40:17;;;;;;;20.30;15.95;;;;;;;15.09;100.00;99633.78;5109866;28;20034;-64
2023/05/17 03:42:42;;;;;;;20.35;16.58;;;;;;;15.08;100.00;99632.13;5111046;28;20084;-64
2023/05/17 03:45:08;;;;;;;20.70;16.67;;;;;;;15.16;100.00;99637.44;5110526;28;20031;-64
2023/05/17 03:47:33;;;;;;;21.38;17.00;;;;;;;15.12;100.00;99622.63;5109084;28;20085;-64
2023/05/17 03:49:59;;;;;;;20.35;15.88;;;;;;;15.12;100.00;99621.81;5109940;28;20031;-64
2023/05/17 03:52:24;;;;;;;19.63;15.95;;;;;;;15.17;100.00;99617.53;5110090;28;20028;-64
2023/05/17 03:54:50;;;;;;;22.92;15.73;;;;;;;15.25;100.00;99633.66;5110153;28;20024;-64
2023/05/17 03:57:16;;;;;;;19.08;16.10;;;;;;;15.19;100.00;99612.78;5110232;28;20062;-64
2023/05/17 03:59:41;;;;;;;18.67;16.70;;;;;;;15.30;100.00;99628.56;5110234;28;20039;-64
2023/05/17 04:02:07;;;;;;;20.70;16.10;;;;;;;15.33;100.00;99617.41;5109981;27;20023;-64
2023/05/17 04:04:32;;;;;;;19.15;15.45;;;;;;;15.36;100.00;99613.50;5109743;28;20069;-64
2023/05/17 04:06:58;;;;;;;20.55;16.65;;;;;;;15.37;100.00;99612.50;5109389;28;20038;-65
2023/05/17 04:09:23;;;;;;;23.42;16.42;;;;;;;15.39;100.00;99614.00;5108212;28;20034;-64
2023/05/17 04:11:48;;;;;;;24.75;16.25;;;;;;;15.43;100.00;99626.13;5109579;28;20019;-64
2023/05/17 04:14:14;;;;;;;22.33;15.82;;;;;;;15.44;100.00;99629.66;5109127;28;20084;-64
2023/05/17 04:16:39;;;;;;;23.80;15.77;;;;;;;15.44;100.00;99627.81;5108875;28;20039;-65
2023/05/17 04:19:05;;;;;;;18.73;15.48;;;;;;;15.39;100.00;99630.22;5109865;28;20027;-64
2023/05/17 04:21:30;;;;;;;17.92;15.05;;;;;;;15.48;100.00;99656.13;5109429;28;20098;-64
2023/05/17 04:23:56;;;;;;;21.23;15.95;;;;;;;15.48;100.00;99658.84;5109729;28;20418;-64
2023/05/17 04:26:22;;;;;;;20.17;17.10;;;;;;;15.42;100.00;99650.63;5109410;28;20023;-64
2023/05/17 04:28:47;;;;;;;24.00;16.90;;;;;;;15.53;100.00;99666.41;5107969;28;20060;-65
2023/05/17 04:31:17;;;;;;;20.85;15.77;;;;;;;15.53;100.00;99661.84;5109683;28;20086;-64
2023/05/17 04:33:43;;;;;;;21.25;16.70;;;;;;;15.58;100.00;99664.84;5109697;28;20474;-64
2023/05/17 04:36:08;;;;;;;19.38;15.52;;;;;;;15.61;100.00;99667.16;5110996;28;20062;-65
2023/05/17 04:38:34;;;;;;;20.15;15.27;;;;;;;15.64;100.00;99672.22;5109670;28;20058;-64
2023/05/17 04:41:08;;;;;;;23.67;17.13;;;;;;;15.65;100.00;99673.91;5109365;28;20024;-64
2023/05/17 04:43:33;;;;;;;20.48;16.30;;;;;;;15.59;100.00;99661.13;5109200;28;20027;-64
2023/05/17 04:45:59;;;;;;;20.85;16.00;;;;;;;15.70;100.00;99678.75;5109842;28;20417;-64
2023/05/17 04:48:26;;;;;;;21.25;17.50;;;;;;;15.57;100.00;99655.06;5109511;28;20434;-64
2023/05/17 04:50:54;;;;;;;23.70;17.17;;;;;;;15.76;100.00;99691.53;5110667;28;20030;-64
2023/05/17 04:53:20;;;;;;;23.85;17.02;;;;;;;15.76;100.00;99686.13;5113548;28;20774;-64
2023/05/17 04:55:47;;;;;;;21.20;17.33;;;;;;;15.82;100.00;99691.66;5113737;28;20035;-64
2023/05/17 04:58:12;;;;;;;20.50;15.90;;;;;;;15.86;100.00;99700.22;5113388;28;20034;-64
2023/05/17 05:00:38;;;;;;;26.92;17.85;;;;;;;15.88;100.00;99701.75;5113759;28;20031;-64
2023/05/17 05:03:03;;;;;;;19.48;16.70;;;;;;;15.89;100.00;99698.00;5113600;28;20015;-64
2023/05/17 05:05:30;;;;;;;21.25;16.60;;;;;;;15.94;100.00;99692.88;5113480;28;20152;-64
2023/05/17 05:07:56;;;;;;;23.17;16.88;;;;;;;15.98;100.00;99700.63;5113514;28;20077;-64
2023/05/17 05:10:22;;;;;;;20.88;16.98;;;;;;;16.00;100.00;99704.84;5113423;28;20027;-65
2023/05/17 05:12:47;;;;;;;25.88;19.70;;;;;;;15.98;100.00;99701.47;5113205;28;20034;-64
2023/05/17 05:15:12;;;;;;;28.38;18.10;;;;;;;15.97;100.00;99704.38;5113281;28;20020;-63
2023/05/17 05:17:38;;;;;;;24.23;20.00;;;;;;;16.06;100.00;99714.94;5113043;28;20030;-64
2023/05/17 05:20:04;;;;;;;24.23;19.70;;;;;;;16.11;100.00;99717.06;5113176;28;20478;-64
2023/05/17 05:22:29;;;;;;;22.35;18.25;;;;;;;16.09;100.00;99711.03;5113012;28;20022;-64
2023/05/17 05:24:55;;;;;;;24.05;18.63;;;;;;;16.12;100.00;99725.00;5113305;28;20024;-64
2023/05/17 05:27:21;;;;;;;23.02;17.67;;;;;;;16.02;100.00;99696.56;5112602;28;20027;-64
2023/05/17 05:29:46;;;;;;;19.50;17.30;;;;;;;16.05;100.00;99709.72;5113207;28;20102;-64
2023/05/17 05:32:12;;;;;;;18.23;16.30;;;;;;;16.09;100.00;99719.94;5112942;28;20024;-64
2023/05/17 05:34:37;;;;;;;25.17;18.30;;;;;;;16.14;100.00;99722.97;5110356;28;20039;-64
2023/05/17 05:37:03;;;;;;;22.80;18.15;;;;;;;16.14;100.00;99719.41;5113138;28;20031;-64
2023/05/17 05:39:28;;;;;;;21.40;17.83;;;;;;;16.15;100.00;99716.50;5094562;28;20047;-64
2023/05/17 05:41:54;;;;;;;23.70;18.40;;;;;;;16.07;100.00;99700.38;5112864;28;20106;-64
2023/05/17 05:44:19;;;;;;;23.52;18.60;;;;;;;16.01;100.00;99686.75;5112418;28;20024;-64
2023/05/17 05:46:45;;;;;;;21.52;18.60;;;;;;;16.19;100.00;99711.59;5112506;28;20024;-64
2023/05/17 05:49:10;;;;;;;20.60;17.48;;;;;;;16.21;100.00;99710.38;5111645;28;20031;-63
2023/05/17 05:51:35;;;;;;;21.88;18.23;;;;;;;16.22;100.00;99725.56;5112577;28;20036;-64
2023/05/17 05:54:01;;;;;;;26.23;18.13;;;;;;;16.23;100.00;99729.97;5112424;28;20016;-64
2023/05/17 05:56:26;;;;;;;22.05;18.02;;;;;;;16.24;100.00;99737.06;5111983;28;20031;-64
2023/05/17 05:58:53;;;;;;;22.27;18.80;;;;;;;16.25;100.00;99746.03;5112791;28;20110;-64
2023/05/17 06:01:20;;;;;;;21.00;18.67;;;;;;;16.27;100.00;99743.97;5110910;28;20040;-64
2023/05/17 06:03:45;;;;;;;25.98;19.90;;;;;;;16.29;100.00;99744.63;5111329;28;20038;-64
2023/05/17 06:06:11;;;;;;;21.90;18.00;;;;;;;16.15;100.00;99727.34;5112136;28;20039;-64
2023/05/17 06:08:36;;;;;;;20.48;18.27;;;;;;;16.24;100.00;99738.91;5112206;28;20106;-64
2023/05/17 06:11:02;;;;;;;22.83;18.60;;;;;;;16.19;100.00;99735.94;5112270;28;20030;-64
2023/05/17 06:13:27;;;;;;;24.00;18.05;;;;;;;16.33;100.00;99757.59;5112347;28;20237;-64
2023/05/17 06:15:53;;;;;;;25.02;18.98;;;;;;;16.32;100.00;99758.63;5112456;28;20360;-64
2023/05/17 06:18:18;;;;;;;21.30;18.85;;;;;;;16.34;100.00;99764.69;5112290;28;20031;-64
2023/05/17 06:20:45;;;;;;;21.65;19.33;;;;;;;16.28;100.00;99749.19;5112105;28;20028;-64
2023/05/17 06:23:10;;;;;;;25.20;20.95;;;;;;;16.37;100.00;99763.47;5112063;28;20031;-64
2023/05/17 06:25:36;;;;;;;29.02;20.75;;;;;;;16.35;100.00;99769.06;5111907;28;20050;-64
2023/05/17 06:28:02;;;;;;;24.15;21.13;;;;;;;16.36;100.00;99769.91;5111822;28;20174;-64
2023/05/17 06:30:28;;;;;;;25.30;20.75;;;;;;;16.35;100.00;99773.66;5111882;28;20045;-64
2023/05/17 06:32:54;;;;;;;26.42;21.88;;;;;;;16.37;100.00;99777.00;5112107;28;20035;-64
2023/05/17 06:35:19;;;;;;;23.33;20.67;;;;;;;16.36;100.00;99776.19;5112460;28;20019;-64
2023/05/17 06:37:45;;;;;;;25.42;22.40;;;;;;;16.35;100.00;99773.66;5112215;28;20023;-64
2023/05/17 06:40:11;;;;;;;34.15;23.73;;;;;;;16.35;100.00;99784.50;5097303;28;20036;-64
2023/05/17 06:42:36;;;;;;;29.83;24.15;;;;;;;16.36;100.00;99787.00;5103457;28;20031;-64
2023/05/17 06:45:02;;;;;;;28.80;25.10;;;;;;;16.34;100.00;99782.81;5112244;28;20032;-63
2023/05/17 06:47:28;;;;;;;29.85;24.30;;;;;;;16.31;100.00;99780.47;5112072;28;20028;-64
2023/05/17 06:49:54;;;;;;;31.15;26.88;;;;;;;16.34;100.00;99785.53;5111551;28;20053;-64
2023/05/17 06:52:19;;;;;;;33.58;25.90;;;;;;;16.34;100.00;99777.41;5111559;28;20019;-64
2023/05/17 06:54:45;;;;;;;30.40;26.35;;;;;;;16.29;100.00;99771.69;5113235;28;20031;-64
2023/05/17 06:57:10;;;;;;;30.90;26.25;;;;;;;16.16;100.00;99755.25;5103233;28;20032;-64
2023/05/17 06:59:36;;;;;;;29.73;24.75;;;;;;;16.22;100.00;99765.34;5087747;28;20065;-64
2023/05/17 07:02:02;;;;;;;31.95;25.63;;;;;;;16.32;100.00;99768.63;5110613;28;20020;-65
2023/05/17 07:04:27;;;;;;;29.10;25.90;;;;;;;16.20;100.00;99759.25;5110843;28;20055;-64
2023/05/17 07:06:52;;;;;;;29.85;25.95;;;;;;;16.37;100.00;99790.53;5111338;28;20089;-65
2023/05/17 07:09:20;;;;;;;30.25;25.50;;;;;;;16.26;100.00;99781.03;5110749;28;20073;-65
2023/05/17 07:11:46;;;;;;;31.50;26.10;;;;;;;16.38;100.00;99816.59;5109453;28;20520;-65
2023/05/17 07:14:11;;;;;;;33.00;24.73;;;;;;;16.29;100.00;99788.78;5091853;28;20131;-65
2023/05/17 07:16:36;;;;;;;28.63;25.65;;;;;;;16.39;100.00;99812.88;5110629;28;20043;-64
2023/05/17 07:19:02;;;;;;;27.65;24.70;;;;;;;16.30;100.00;99806.69;5111049;28;20031;-66
2023/05/17 07:21:28;;;;;;;36.03;26.20;;;;;;;16.28;100.00;99810.63;5109717;28;20034;-64
2023/05/17 07:23:53;;;;;;;30.77;25.77;;;;;;;16.29;100.00;99801.47;5110297;28;20111;-64
2023/05/17 07:26:20;;;;;;;28.90;25.73;;;;;;;16.30;100.00;99801.28;5099128;28;20096;-64
2023/05/17 07:28:45;;;;;;;30.10;24.58;;;;;;;16.30;100.00;99798.56;5109903;28;20056;-63
2023/05/17 07:31:11;;;;;;;29.63;24.95;;;;;;;16.35;100.00;99795.31;5092844;28;20027;-64
2023/05/17 07:33:37;;;;;;;28.60;24.33;;;;;;;16.33;100.00;99786.53;5107615;28;20118;-64
2023/05/17 07:36:03;;;;;;;30.58;24.38;;;;;;;16.35;100.00;99784.50;5107638;28;20080;-64
2023/05/17 07:38:29;;;;;;;28.13;22.05;;;;;;;16.42;100.00;99788.13;5109309;28;20475;-64
2023/05/17 07:40:54;;;;;;;27.52;24.55;;;;;;;16.33;100.00;99773.00;5108767;28;20071;-65
2023/05/17 07:43:20;;;;;;;27.88;23.75;;;;;;;16.34;100.00;99780.09;5100759;28;20072;-64
2023/05/17 07:45:46;;;;;;;25.00;22.17;;;;;;;16.31;100.00;99786.72;5109467;28;20037;-64
2023/05/17 07:48:12;;;;;;;25.15;22.40;;;;;;;16.29;100.00;99786.06;5109048;28;20034;-64
2023/05/17 07:50:37;;;;;;;26.15;23.00;;;;;;;16.27;100.00;99781.84;5109396;28;20391;-64
2023/05/17 07:53:03;;;;;;;26.88;22.25;;;;;;;16.35;100.00;99777.19;5109391;28;20031;-63
2023/05/17 07:55:28;;;;;;;26.98;21.08;;;;;;;16.33;100.00;99781.97;5108587;28;20068;-65
2023/05/17 07:57:54;;;;;;;23.83;21.08;;;;;;;16.16;100.00;99753.38;5109345;28;20051;-64
2023/05/17 08:00:19;;;;;;;23.33;20.83;;;;;;;16.33;100.00;99775.69;5109933;28;20076;-64
2023/05/17 08:02:45;;;;;;;24.88;22.23;;;;;;;16.33;100.00;99781.97;5109758;28;20048;-63
2023/05/17 08:05:10;;;;;;;31.13;23.15;;;;;;;16.44;100.00;99786.13;5109018;28;20035;-64
2023/05/17 08:07:36;;;;;;;26.30;21.65;;;;;;;16.50;100.00;99783.50;5108957;28;20032;-64
2023/05/17 08:10:02;;;;;;;22.92;20.45;;;;;;;16.58;100.00;99793.41;5107872;28;20100;-64
2023/05/17 08:12:27;;;;;;;23.80;21.30;;;;;;;16.60;100.00;99786.78;5098737;28;20055;-64
2023/05/17 08:14:53;;;;;;;23.23;20.80;;;;;;;16.74;100.00;99796.78;5109668;28;20107;-64
2023/05/17 08:17:18;;;;;;;22.55;20.30;;;;;;;16.73;100.00;99799.69;5108688;28;20055;-64
2023/05/17 08:19:44;;;;;;;24.33;21.23;;;;;;;16.78;100.00;99797.25;5108686;28;20039;-64
2023/05/17 08:22:10;;;;;;;24.77;19.63;;;;;;;16.79;100.00;99802.47;5109178;28;20107;-69
2023/05/17 08:24:35;;;;;;;20.65;18.45;;;;;;;16.76;100.00;99778.47;5108384;28;20029;-64
2023/05/17 08:27:01;;;;;;;22.45;20.05;;;;;;;16.80;100.00;99768.13;5108106;28;20028;-64
2023/05/17 08:29:26;;;;;;;23.48;20.27;;;;;;;16.93;100.00;99790.78;5108626;28;20035;-65
2023/05/17 08:31:55;;;;;;;26.27;21.25;;;;;;;17.02;100.00;99795.09;5106117;28;20152;-65
2023/05/17 08:34:21;;;;;;;23.60;20.85;;;;;;;17.10;100.00;99797.72;5109558;28;20031;-65
2023/05/17 08:36:47;;;;;;;26.65;21.73;;;;;;;17.16;100.00;99796.09;5101070;28;20774;-64
2023/05/17 08:39:12;;;;;;;23.40;20.65;;;;;;;17.18;100.00;99789.44;5106922;28;20034;-65
2023/05/17 08:41:38;;;;;;;23.30;20.98;;;;;;;17.22;100.00;99787.22;5108982;28;20168;-65
2023/05/17 08:44:05;;;;;;;30.88;21.55;;;;;;;17.20;100.00;99778.44;5109410;28;20039;-65
2023/05/17 08:46:32;;;;;;;26.38;21.15;;;;;;;17.32;100.00;99795.88;5104974;28;20055;-64
2023/05/17 08:49:00;;;;;;;26.85;22.92;;;;;;;17.41;100.00;99800.19;5110194;28;20888;-69
2023/05/17 08:51:27;;;;;;;34.08;23.08;;;;;;;17.40;100.00;99776.78;5110250;28;20028;-70
2023/05/17 08:53:56;;;;;;;26.38;22.02;;;;;;;17.66;100.00;99799.66;5103117;28;20063;-70
2023/05/17 08:56:22;;;;;;;24.58;21.73;;;;;;;17.73;100.00;99807.84;5110330;28;20399;-70
2023/05/17 08:58:51;;;;;;;31.23;23.63;;;;;;;17.76;100.00;99788.47;5108397;28;20042;-70
2023/05/17 09:01:17;;;;;;;27.67;24.20;;;;;;;17.89;100.00;99794.03;5110494;28;20035;-70
2023/05/17 09:03:47;;;;;;;28.50;23.35;;;;;;;18.04;100.00;99811.09;5110314;28;20528;-71
2023/05/17 09:06:20;;;;;;;35.08;21.92;;;;;;;18.19;100.00;99805.59;5110146;28;20027;-70
2023/05/17 09:08:46;;;;;;;26.95;23.73;;;;;;;18.34;100.00;99803.63;5110499;28;20034;-70
2023/05/17 09:11:12;;;;;;;29.45;24.25;;;;;;;18.56;100.00;99810.69;5110361;28;20067;-70
2023/05/17 09:13:37;;;;;;;30.85;24.00;;;;;;;18.66;100.00;99798.47;5110175;28;20063;-70
2023/05/17 09:16:12;;;;;;;29.73;23.77;;;;;;;18.87;100.00;99822.00;5110348;28;20028;-69
2023/05/17 09:18:37;;;;;;;30.08;23.50;;;;;;;18.87;100.00;99787.53;5109745;28;20027;-70
2023/05/17 09:21:06;;;;;;;26.70;22.63;;;;;;;19.11;100.00;99813.34;5100990;28;20081;-70
2023/05/17 09:23:32;;;;;;;25.10;22.40;;;;;;;19.06;100.00;99789.50;5108249;28;20035;-71
2023/05/17 09:26:06;;;;;;;28.73;23.05;;;;;;;19.24;100.00;99808.81;5109125;28;20028;-70
2023/05/17 09:28:40;;;;;;;26.85;22.48;;;;;;;19.46;100.00;99824.03;5106522;28;20059;-70
2023/05/17 09:31:07;;;;;;;;;;;;;;;19.51;100.00;99826.94;5107331;28;20069;-70
2023/05/17 09:33:33;;;;;;;25.65;22.10;;;;;;;19.73;100.00;99825.78;5106766;28;20438;-71
2023/05/17 09:36:02;;;;;;;27.25;22.13;;;;;;;19.74;100.00;99818.47;5109149;28;20058;-70
2023/05/17 09:38:28;;;;;;;25.55;22.83;;;;;;;19.72;100.00;99807.78;5101439;28;20157;-70
2023/05/17 09:40:54;;;;;;;25.85;22.42;;;;;;;19.86;100.00;99833.97;5112352;28;20111;-70
2023/05/17 09:43:26;;;;;;;27.38;23.15;;;;;;;19.85;100.00;99812.41;5112750;28;20471;-71
2023/05/17 09:45:58;;;;;;;27.08;21.40;;;;;;;20.05;100.00;99833.19;5110447;28;20479;-71
2023/05/17 09:48:26;;;;;;;29.85;22.13;;;;;;;20.09;100.00;99828.97;5110483;28;20085;-71
2023/05/17 09:50:52;;;;;;;27.27;22.13;;;;;;;20.04;100.00;99815.16;5105497;28;20028;-70
2023/05/17 09:53:26;;;;;;;26.70;22.70;;;;;;;20.10;100.00;99816.22;5113501;28;20110;-71
2023/05/17 09:55:53;;;;;;;23.52;20.90;;;;;;;20.13;100.00;99821.28;5113133;28;20063;-71
2023/05/17 09:58:19;;;;;;;22.08;19.63;;;;;;;20.53;100.00;99839.31;5112962;28;20031;-71
2023/05/17 10:00:55;;;;;;;23.40;20.83;;;;;;;20.54;100.00;99842.88;5112399;28;20365;-71
2023/05/17 10:03:21;;;;;;;26.80;20.60;;;;;;;20.47;100.00;99833.88;5112572;28;20019;-71
2023/05/17 10:05:52;;;;;;;22.25;18.80;;;;;;;20.33;100.00;99826.72;5112327;28;20027;-71
2023/05/17 10:08:21;;;;;;;25.45;19.73;;;;;;;20.49;98.43;99829.03;5112635;28;20116;-71
2023/05/17 10:10:49;;;;;;;23.33;18.95;;;;;;;20.62;97.61;99842.66;5103131;28;20100;-71
2023/05/17 10:13:19;;;;;;;21.63;19.33;;;;;;;20.59;97.64;99848.53;5112733;28;20020;-71
2023/05/17 10:15:46;;;;;;;23.60;17.75;;;;;;;20.57;96.65;99839.75;5112950;28;20024;-71
2023/05/17 10:18:12;;;;;;;24.00;19.52;;;;;;;20.54;97.28;99840.16;5113153;28;20594;-71
2023/05/17 10:20:38;;;;;;;20.75;18.63;;;;;;;20.52;98.73;99836.78;5112881;28;20114;-71
2023/05/17 10:23:05;;;;;;;20.35;17.27;;;;;;;20.42;99.24;99818.16;5113104;28;20395;-71
2023/05/17 10:25:32;;;;;;;24.15;18.48;;;;;;;20.55;99.79;99841.81;5113674;28;20237;-71
2023/05/17 10:27:58;;;;;;;21.85;17.05;;;;;;;20.63;99.93;99839.72;5112977;27;20678;-71
2023/05/17 10:30:25;;;;;;;20.88;16.15;;;;;;;20.68;100.00;99828.19;5113099;28;20180;-71
2023/05/17 10:32:52;;;;;;;21.25;16.20;;;;;;;20.81;99.51;99837.19;5113459;28;20044;-71
2023/05/17 10:35:19;;;;;;;19.10;16.25;;;;;;;20.79;97.74;99825.66;5103141;28;20031;-70
2023/05/17 10:37:45;;;;;;;21.00;15.60;;;;;;;21.21;93.33;99851.59;5113054;28;20378;-71
2023/05/17 10:40:12;;;;;;;21.90;15.27;;;;;;;21.14;94.79;99832.53;5112635;28;20227;-71
2023/05/17 10:42:50;;;;;;;18.27;15.27;;;;;;;21.31;92.78;99846.56;5111311;28;20134;-71
2023/05/17 10:45:18;;;;;;;18.60;15.90;;;;;;;21.45;90.63;99842.72;5093368;28;20089;-71
2023/05/17 10:47:45;;;;;;;20.83;15.02;;;;;;;21.46;92.17;99849.84;5111132;28;20023;-71
2023/05/17 10:50:12;;;;;;;16.92;15.00;;;;;;;21.45;91.79;99856.38;5110869;28;20038;-71
2023/05/17 10:52:44;;;;;;;17.02;15.18;;;;;;;21.35;90.53;99853.25;5111098;27;20097;-71
2023/05/17 10:55:09;;;;;;;16.45;13.95;;;;;;;21.33;90.43;99866.25;5109860;28;20028;-71
2023/05/17 10:57:36;;;;;;;15.70;13.75;;;;;;;21.33;88.88;99858.94;5112296;28;20024;-71
2023/05/17 11:00:06;;;;;;;16.90;14.20;;;;;;;21.33;88.76;99848.00;5112127;28;20028;-72
2023/05/17 11:02:32;;;;;;;17.55;14.80;;;;;;;21.35;88.61;99853.25;5112149;28;20110;-71
2023/05/17 11:04:59;;;;;;;16.77;14.98;;;;;;;21.19;90.17;99840.94;5111331;28;20042;-71
2023/05/17 11:07:32;;;;;;;20.33;14.15;;;;;;;21.29;88.50;99862.28;5110746;28;20050;-71